createdAt,value
2023-05-01T00:01:52.396Z,9.60
2023-05-01T00:04:19.558Z,9.70
2023-05-01T00:06:47.035Z,9.60
2023-05-01T00:09:14.116Z,9.60
2023-05-01T00:11:41.112Z,9.70
2023-05-01T00:14:08.047Z,9.70
2023-05-01T00:16:36.607Z,9.60
2023-05-01T00:19:04.997Z,9.60
2023-05-01T00:21:31.876Z,9.60
2023-05-01T00:23:58.796Z,9.60
2023-05-01T00:26:30.559Z,9.60
2023-05-01T00:28:58.376Z,9.60
2023-05-01T00:31:26.092Z,9.60
2023-05-01T00:33:53.317Z,9.60
2023-05-01T00:36:20.532Z,9.60
2023-05-01T00:38:47.575Z,9.60
2023-05-01T00:41:14.741Z,9.60
2023-05-01T00:43:42.182Z,9.60
2023-05-01T00:46:10.039Z,9.60
2023-05-01T00:48:37.523Z,9.50
2023-05-01T00:51:08.638Z,9.60
2023-05-01T00:53:35.664Z,9.50
2023-05-01T00:56:02.725Z,9.50
2023-05-01T00:58:30.077Z,9.60
2023-05-01T01:00:57.464Z,9.60
2023-05-01T01:03:24.683Z,9.60
2023-05-01T01:06:04.933Z,9.50
2023-05-01T01:08:42.170Z,9.50
2023-05-01T01:11:23.195Z,9.50
2023-05-01T01:13:59.117Z,9.50
2023-05-01T01:16:39.827Z,9.50
2023-05-01T01:19:19.395Z,9.50
2023-05-01T01:21:54.602Z,9.50
2023-05-01T01:24:47.835Z,9.40
2023-05-01T01:27:40.837Z,9.40
2023-05-01T01:30:10.851Z,9.40
2023-05-01T01:33:04.080Z,9.40
2023-05-01T01:35:32.142Z,9.40
2023-05-01T01:38:07.371Z,9.40
2023-05-01T01:40:53.823Z,9.30
2023-05-01T01:43:23.088Z,9.30
2023-05-01T01:45:56.544Z,9.30
2023-05-01T01:48:28.069Z,9.30
2023-05-01T01:50:59.328Z,9.20
2023-05-01T01:53:29.646Z,9.20
2023-05-01T01:56:00.835Z,9.20
2023-05-01T01:58:31.155Z,9.20
2023-05-01T02:00:59.285Z,9.10
2023-05-01T02:03:27.393Z,9.10
2023-05-01T02:05:59.983Z,9.10
2023-05-01T02:08:30.851Z,9.10
2023-05-01T02:11:01.950Z,9.10
2023-05-01T02:13:30.324Z,9.10
2023-05-01T02:15:59.792Z,9.10
2023-05-01T02:18:31.058Z,9.10
2023-05-01T02:20:58.786Z,9.10
2023-05-01T02:23:28.638Z,9.00
2023-05-01T02:25:57.938Z,9.00
2023-05-01T02:28:27.075Z,9.00
2023-05-01T02:30:54.064Z,9.00
2023-05-01T02:33:21.066Z,9.00
2023-05-01T02:35:48.135Z,9.00
2023-05-01T02:38:16.270Z,9.00
2023-05-01T02:40:50.478Z,8.90
2023-05-01T02:43:20.932Z,8.90
2023-05-01T02:45:49.376Z,8.90
2023-05-01T02:48:21.890Z,8.90
2023-05-01T02:50:50.584Z,8.80
2023-05-01T02:53:18.852Z,8.80
2023-05-01T02:55:46.173Z,8.80
2023-05-01T02:58:19.737Z,8.70
2023-05-01T03:00:49.749Z,8.70
2023-05-01T03:03:17.499Z,8.70
2023-05-01T03:05:44.510Z,8.70
2023-05-01T03:08:11.725Z,8.70
2023-05-01T03:10:44.359Z,8.60
2023-05-01T03:13:12.220Z,8.60
2023-05-01T03:15:39.794Z,8.50
2023-05-01T03:18:07.786Z,8.50
2023-05-01T03:20:34.763Z,8.50
2023-05-01T03:23:02.005Z,8.50
2023-05-01T03:25:29.162Z,8.40
2023-05-01T03:27:56.290Z,8.40
2023-05-01T03:30:23.201Z,8.40
2023-05-01T03:32:51.728Z,8.30
2023-05-01T03:35:18.835Z,8.30
2023-05-01T03:37:45.837Z,8.20
2023-05-01T03:40:13.811Z,8.20
2023-05-01T03:42:40.753Z,8.10
2023-05-01T03:45:08.287Z,8.10
2023-05-01T03:47:35.219Z,8.00
2023-05-01T03:50:02.494Z,8.00
2023-05-01T03:52:29.418Z,8.00
2023-05-01T03:54:57.231Z,8.00
2023-05-01T03:57:24.299Z,8.00
2023-05-01T03:59:51.354Z,7.90
2023-05-01T04:02:19.645Z,7.80
2023-05-01T04:04:47.255Z,7.80
2023-05-01T04:07:14.466Z,7.80
2023-05-01T04:09:41.410Z,7.80
2023-05-01T04:12:08.367Z,7.80
2023-05-01T04:14:35.790Z,7.70
2023-05-01T04:17:02.748Z,7.80
2023-05-01T04:19:29.725Z,7.80
2023-05-01T04:21:56.842Z,7.80
2023-05-01T04:24:23.708Z,7.80
2023-05-01T04:26:50.777Z,7.80
2023-05-01T04:29:17.779Z,7.80
2023-05-01T04:31:50.921Z,7.90
2023-05-01T04:34:18.031Z,7.90
2023-05-01T04:36:44.955Z,7.90
2023-05-01T04:39:11.939Z,8.00
2023-05-01T04:41:38.955Z,8.00
2023-05-01T04:44:06.037Z,8.00
2023-05-01T04:46:33.622Z,8.00
2023-05-01T04:49:00.533Z,8.10
2023-05-01T04:51:29.089Z,8.10
2023-05-01T04:53:55.964Z,8.20
2023-05-01T04:56:23.102Z,8.20
2023-05-01T04:58:50.041Z,8.30
2023-05-01T05:01:17.008Z,8.40
2023-05-01T05:03:45.028Z,8.40
2023-05-01T05:06:13.625Z,8.50
2023-05-01T05:08:40.541Z,8.60
2023-05-01T05:11:07.632Z,8.70
2023-05-01T05:13:34.538Z,8.80
2023-05-01T05:16:01.550Z,8.90
2023-05-01T05:18:28.458Z,9.00
2023-05-01T05:20:55.438Z,9.10
2023-05-01T05:23:22.360Z,9.10
2023-05-01T05:25:49.327Z,9.20
2023-05-01T05:28:16.352Z,9.20
2023-05-01T05:30:43.566Z,9.30
2023-05-01T05:33:10.546Z,9.40
2023-05-01T05:35:37.524Z,9.50
2023-05-01T05:38:04.438Z,9.50
2023-05-01T05:40:31.396Z,9.60
2023-05-01T05:42:58.326Z,9.60
2023-05-01T05:45:25.408Z,9.70
2023-05-01T05:47:52.471Z,9.70
2023-05-01T05:50:19.382Z,9.80
2023-05-01T05:52:46.353Z,9.80
2023-05-01T05:55:13.287Z,9.80
2023-05-01T05:57:40.218Z,9.80
2023-05-01T06:00:09.397Z,9.90
2023-05-01T06:02:37.013Z,9.90
2023-05-01T06:05:04.291Z,10.00
2023-05-01T06:07:31.345Z,10.00
2023-05-01T06:10:05.089Z,10.10
2023-05-01T06:12:32.533Z,10.20
2023-05-01T06:15:00.698Z,10.40
2023-05-01T06:17:27.696Z,10.50
2023-05-01T06:19:55.201Z,10.60
2023-05-01T06:22:22.480Z,10.70
2023-05-01T06:24:49.563Z,10.90
2023-05-01T06:27:16.503Z,10.90
2023-05-01T06:29:43.392Z,11.00
2023-05-01T06:32:10.564Z,11.00
2023-05-01T06:34:37.488Z,11.10
2023-05-01T06:37:05.718Z,11.10
2023-05-01T06:39:32.610Z,11.20
2023-05-01T06:41:59.759Z,11.30
2023-05-01T06:44:26.789Z,11.40
2023-05-01T06:46:53.740Z,11.50
2023-05-01T06:49:20.807Z,11.60
2023-05-01T06:51:47.856Z,11.70
2023-05-01T06:54:14.833Z,11.80
2023-05-01T06:56:41.900Z,12.00
2023-05-01T06:59:09.025Z,12.10
2023-05-01T07:01:36.425Z,12.20
2023-05-01T07:04:04.076Z,12.40
2023-05-01T07:06:32.351Z,12.50
2023-05-01T07:08:59.372Z,12.70
2023-05-01T07:11:26.962Z,12.80
2023-05-01T07:13:54.798Z,13.10
2023-05-01T07:16:22.131Z,13.30
2023-05-01T07:18:49.100Z,13.50
2023-05-01T07:21:16.200Z,13.70
2023-05-01T07:23:43.156Z,13.80
2023-05-01T07:26:10.167Z,14.00
2023-05-01T07:28:37.126Z,14.10
2023-05-01T07:31:04.449Z,14.20
2023-05-01T07:33:31.628Z,14.40
2023-05-01T07:35:58.615Z,14.60
2023-05-01T07:38:26.341Z,14.80
2023-05-01T07:40:54.113Z,15.00
2023-05-01T07:43:21.045Z,15.30
2023-05-01T07:45:59.054Z,15.40
2023-05-01T07:48:27.924Z,15.70
2023-05-01T07:50:56.609Z,16.00
2023-05-01T07:53:23.866Z,16.30
2023-05-01T07:55:51.174Z,16.60
2023-05-01T07:58:18.272Z,16.80
2023-05-01T08:00:45.614Z,17.00
2023-05-01T08:03:13.259Z,17.30
2023-05-01T08:05:41.723Z,17.50
2023-05-01T08:08:09.515Z,17.60
2023-05-01T08:10:36.702Z,17.70
2023-05-01T08:13:03.800Z,17.70
2023-05-01T08:15:30.787Z,17.70
2023-05-01T08:17:57.894Z,17.70
2023-05-01T08:20:25.377Z,17.80
2023-05-01T08:22:52.529Z,17.90
2023-05-01T08:25:19.587Z,17.90
2023-05-01T08:27:46.557Z,17.90
2023-05-01T08:30:13.591Z,17.90
2023-05-01T08:32:40.632Z,17.90
2023-05-01T08:35:08.224Z,18.10
2023-05-01T08:37:35.449Z,18.30
2023-05-01T08:40:08.356Z,18.60
2023-05-01T08:42:39.069Z,18.90
2023-05-01T08:45:10.174Z,18.90
2023-05-01T08:47:39.344Z,19.10
2023-05-01T08:50:13.327Z,19.10
2023-05-01T08:52:44.051Z,19.40
2023-05-01T08:55:14.316Z,19.70
2023-05-01T08:57:48.721Z,20.10
2023-05-01T09:00:20.560Z,20.40
2023-05-01T09:02:49.762Z,20.60
2023-05-01T09:05:18.930Z,20.50
2023-05-01T09:07:46.783Z,20.60
2023-05-01T09:10:16.189Z,20.60
2023-05-01T09:12:46.956Z,20.50
2023-05-01T09:15:14.228Z,20.60
2023-05-01T09:17:42.859Z,21.00
2023-05-01T09:20:10.857Z,21.20
2023-05-01T09:22:37.996Z,21.10
2023-05-01T09:25:05.259Z,21.30
2023-05-01T09:27:36.871Z,21.70
2023-05-01T09:30:09.140Z,21.80
2023-05-01T09:32:36.163Z,21.80
2023-05-01T09:35:14.599Z,21.70
2023-05-01T09:37:42.070Z,21.80
2023-05-01T09:40:12.156Z,21.90
2023-05-01T09:42:55.157Z,22.20
2023-05-01T09:45:23.562Z,22.30
2023-05-01T09:47:50.664Z,22.10
2023-05-01T09:50:32.436Z,22.40
2023-05-01T09:53:02.071Z,22.60
2023-05-01T09:55:29.048Z,22.70
2023-05-01T09:57:56.060Z,22.60
2023-05-01T10:00:23.023Z,22.80
2023-05-01T10:02:50.841Z,22.80
2023-05-01T10:05:19.140Z,23.10
2023-05-01T10:07:57.892Z,23.60
2023-05-01T10:10:25.276Z,24.00
2023-05-01T10:12:52.277Z,24.30
2023-05-01T10:15:26.304Z,24.70
2023-05-01T10:17:54.721Z,25.00
2023-05-01T10:20:22.162Z,25.10
2023-05-01T10:22:49.712Z,25.20
2023-05-01T10:25:18.874Z,25.30
2023-05-01T10:27:46.156Z,25.10
2023-05-01T10:30:13.207Z,25.00
2023-05-01T10:32:43.183Z,24.40
2023-05-01T10:35:21.938Z,24.50
2023-05-01T10:37:57.632Z,24.80
2023-05-01T10:40:39.820Z,24.80
2023-05-01T10:43:31.194Z,25.20
2023-05-01T10:46:10.506Z,25.60
2023-05-01T10:48:40.918Z,25.60
2023-05-01T10:51:12.110Z,26.00
2023-05-01T10:53:40.831Z,26.30
2023-05-01T10:56:42.865Z,26.40
2023-05-01T10:59:10.773Z,26.70
2023-05-01T11:01:41.688Z,26.00
2023-05-01T11:04:24.808Z,25.80
2023-05-01T11:07:14.920Z,26.00
2023-05-01T11:09:43.789Z,26.00
2023-05-01T11:12:15.226Z,25.80
2023-05-01T11:15:09.640Z,26.00
2023-05-01T11:17:43.138Z,26.10
2023-05-01T11:20:11.399Z,25.90
2023-05-01T11:22:40.974Z,25.60
2023-05-01T11:25:25.502Z,25.30
2023-05-01T11:27:58.210Z,25.20
2023-05-01T11:30:26.013Z,25.40
2023-05-01T11:32:53.093Z,25.80
2023-05-01T11:35:28.588Z,26.30
2023-05-01T11:37:56.002Z,26.80
2023-05-01T11:40:27.070Z,27.00
2023-05-01T11:43:07.800Z,26.50
2023-05-01T11:45:38.040Z,26.50
2023-05-01T11:48:14.185Z,27.00
2023-05-01T11:50:41.423Z,27.00
2023-05-01T11:53:17.712Z,26.10
2023-05-01T11:55:45.580Z,25.60
2023-05-01T11:58:13.171Z,25.40
2023-05-01T12:00:43.105Z,24.70
2023-05-01T12:03:12.646Z,24.30
2023-05-01T12:05:44.578Z,24.00
2023-05-01T12:08:22.267Z,23.90
2023-05-01T12:10:58.065Z,24.00
2023-05-01T12:13:26.967Z,23.90
2023-05-01T12:15:55.767Z,23.50
2023-05-01T12:18:23.135Z,23.40
2023-05-01T12:20:53.051Z,23.70
2023-05-01T12:23:36.036Z,24.00
2023-05-01T12:26:15.786Z,24.10
2023-05-01T12:28:54.481Z,24.60
2023-05-01T12:31:22.268Z,25.30
2023-05-01T12:33:56.922Z,25.20
2023-05-01T12:36:25.471Z,25.10
2023-05-01T12:39:06.811Z,24.70
2023-05-01T12:41:41.977Z,24.10
2023-05-01T12:44:22.460Z,24.00
2023-05-01T12:47:03.941Z,24.00
2023-05-01T12:49:32.525Z,24.00
2023-05-01T12:52:04.902Z,24.00
2023-05-01T12:54:39.114Z,24.10
2023-05-01T12:57:11.829Z,24.00
2023-05-01T12:59:40.084Z,23.70
2023-05-01T13:02:10.934Z,23.60
2023-05-01T13:04:38.813Z,23.60
2023-05-01T13:07:16.931Z,23.80
2023-05-01T13:09:58.754Z,23.70
2023-05-01T13:12:27.656Z,23.40
2023-05-01T13:14:55.204Z,22.90
2023-05-01T13:17:25.807Z,22.80
2023-05-01T13:20:01.079Z,22.50
2023-05-01T13:22:33.878Z,22.30
2023-05-01T13:25:03.863Z,22.30
2023-05-01T13:27:31.048Z,22.20
2023-05-01T13:29:59.681Z,22.00
2023-05-01T13:32:27.679Z,21.90
2023-05-01T13:34:54.683Z,21.80
2023-05-01T13:37:22.364Z,21.70
2023-05-01T13:39:49.305Z,21.60
2023-05-01T13:42:24.752Z,21.70
2023-05-01T13:44:54.164Z,21.60
2023-05-01T13:47:23.354Z,21.30
2023-05-01T13:49:50.715Z,21.20
2023-05-01T13:52:19.094Z,21.10
2023-05-01T13:54:47.624Z,21.10
2023-05-01T13:57:18.201Z,21.00
2023-05-01T13:59:46.826Z,20.90
2023-05-01T14:02:28.316Z,20.80
2023-05-01T14:04:58.167Z,20.80
2023-05-01T14:07:26.724Z,20.60
2023-05-01T14:09:56.032Z,20.40
2023-05-01T14:12:31.746Z,20.20
2023-05-01T14:15:03.432Z,20.00
2023-05-01T14:17:35.665Z,19.80
2023-05-01T14:20:04.906Z,19.60
2023-05-01T14:22:43.336Z,19.50
2023-05-01T14:25:27.289Z,19.50
2023-05-01T14:27:55.114Z,19.50
2023-05-01T14:30:37.306Z,19.30
2023-05-01T14:33:08.690Z,19.30
2023-05-01T14:35:36.555Z,19.30
2023-05-01T14:38:16.707Z,19.30
2023-05-01T14:40:44.826Z,19.20
2023-05-01T14:43:16.526Z,19.20
2023-05-01T14:45:50.284Z,19.10
2023-05-01T14:48:34.401Z,19.00
2023-05-01T14:51:02.121Z,18.80
2023-05-01T14:53:32.668Z,18.80
2023-05-01T14:55:59.728Z,18.90
2023-05-01T14:58:26.779Z,18.90
2023-05-01T15:00:53.673Z,18.90
2023-05-01T15:03:20.687Z,18.90
2023-05-01T15:05:47.872Z,19.00
2023-05-01T15:08:14.990Z,18.90
2023-05-01T15:10:42.283Z,18.90
2023-05-01T15:13:09.412Z,18.90
2023-05-01T15:15:36.525Z,18.90
2023-05-01T15:18:04.249Z,18.80
2023-05-01T15:20:31.654Z,19.00
2023-05-01T15:22:58.850Z,19.10
2023-05-01T15:25:26.085Z,19.20
2023-05-01T15:27:53.087Z,19.30
2023-05-01T15:30:20.238Z,19.30
2023-05-01T15:32:47.559Z,19.20
2023-05-01T15:35:14.845Z,18.90
2023-05-01T15:37:42.217Z,18.90
2023-05-01T15:40:09.546Z,18.90
2023-05-01T15:42:36.482Z,18.80
2023-05-01T15:45:03.757Z,18.70
2023-05-01T15:47:30.848Z,18.50
2023-05-01T15:49:57.993Z,18.30
2023-05-01T15:52:25.723Z,18.20
2023-05-01T15:54:52.690Z,18.20
2023-05-01T15:57:19.583Z,18.20
2023-05-01T15:59:51.299Z,18.30
2023-05-01T16:02:18.357Z,18.30
2023-05-01T16:04:48.526Z,18.30
2023-05-01T16:07:15.561Z,18.30
2023-05-01T16:09:42.701Z,18.20
2023-05-01T16:12:09.677Z,18.20
2023-05-01T16:14:40.319Z,18.20
2023-05-01T16:17:07.861Z,18.20
2023-05-01T16:19:37.915Z,18.00
2023-05-01T16:22:06.800Z,17.80
2023-05-01T16:24:34.649Z,17.70
2023-05-01T16:27:01.879Z,17.70
2023-05-01T16:29:28.967Z,17.60
2023-05-01T16:31:55.941Z,17.60
2023-05-01T16:34:25.503Z,17.70
2023-05-01T16:36:53.019Z,17.90
2023-05-01T16:39:22.203Z,18.10
2023-05-01T16:41:53.898Z,18.10
2023-05-01T16:44:22.575Z,18.10
2023-05-01T16:46:56.294Z,18.10
2023-05-01T16:49:23.769Z,18.20
2023-05-01T16:51:51.048Z,18.10
2023-05-01T16:54:18.460Z,18.10
2023-05-01T16:56:45.562Z,18.00
2023-05-01T16:59:12.539Z,18.00
2023-05-01T17:01:39.460Z,17.90
2023-05-01T17:04:06.767Z,17.70
2023-05-01T17:06:34.055Z,17.70
2023-05-01T17:09:00.993Z,17.70
2023-05-01T17:11:30.337Z,17.70
2023-05-01T17:13:58.860Z,17.60
2023-05-01T17:16:25.818Z,17.50
2023-05-01T17:18:52.787Z,17.30
2023-05-01T17:21:20.008Z,17.10
2023-05-01T17:23:46.942Z,16.90
2023-05-01T17:26:16.008Z,16.70
2023-05-01T17:28:46.592Z,16.50
2023-05-01T17:31:14.782Z,16.40
2023-05-01T17:33:42.932Z,16.30
2023-05-01T17:36:09.982Z,16.20
2023-05-01T17:38:36.936Z,16.00
2023-05-01T17:41:03.957Z,16.00
2023-05-01T17:43:30.999Z,16.00
2023-05-01T17:45:58.070Z,16.00
2023-05-01T17:48:25.026Z,15.90
2023-05-01T17:50:52.270Z,15.90
2023-05-01T17:53:19.227Z,15.90
2023-05-01T17:55:46.546Z,15.80
2023-05-01T17:58:13.716Z,15.70
2023-05-01T18:00:41.275Z,15.50
2023-05-01T18:03:08.893Z,15.40
2023-05-01T18:05:36.099Z,15.30
2023-05-01T18:08:03.363Z,15.20
2023-05-01T18:10:31.377Z,15.00
2023-05-01T18:12:58.770Z,14.90
2023-05-01T18:15:26.237Z,14.70
2023-05-01T18:17:53.320Z,14.60
2023-05-01T18:20:20.424Z,14.50
2023-05-01T18:22:47.368Z,14.50
2023-05-01T18:25:16.288Z,14.50
2023-05-01T18:27:44.766Z,14.40
2023-05-01T18:30:12.127Z,14.40
2023-05-01T18:32:46.822Z,14.40
2023-05-01T18:35:18.043Z,14.30
2023-05-01T18:37:45.078Z,14.30
2023-05-01T18:40:12.834Z,14.30
2023-05-01T18:42:43.288Z,14.30
2023-05-01T18:45:10.620Z,14.20
2023-05-01T18:47:37.801Z,14.10
2023-05-01T18:50:07.842Z,14.10
2023-05-01T18:52:37.141Z,14.00
2023-05-01T18:55:04.664Z,13.90
2023-05-01T18:57:32.580Z,13.80
2023-05-01T19:00:01.326Z,13.80
2023-05-01T19:02:28.708Z,13.70
2023-05-01T19:04:57.945Z,13.70
2023-05-01T19:07:28.157Z,13.60
2023-05-01T19:09:55.432Z,13.60
2023-05-01T19:12:22.415Z,13.50
2023-05-01T19:14:49.408Z,13.40
2023-05-01T19:17:16.526Z,13.30
2023-05-01T19:19:43.573Z,13.30
2023-05-01T19:22:10.724Z,13.30
2023-05-01T19:24:37.703Z,13.20
2023-05-01T19:27:04.716Z,13.20
2023-05-01T19:29:32.282Z,13.20
2023-05-01T19:32:02.116Z,13.10
2023-05-01T19:34:29.355Z,13.10
2023-05-01T19:37:00.323Z,13.00
2023-05-01T19:39:28.922Z,12.90
2023-05-01T19:41:56.040Z,12.90
2023-05-01T19:44:23.078Z,12.90
2023-05-01T19:46:50.144Z,12.80
2023-05-01T19:49:17.072Z,12.80
2023-05-01T19:51:45.657Z,12.70
2023-05-01T19:54:12.653Z,12.70
2023-05-01T19:56:39.641Z,12.70
2023-05-01T19:59:06.821Z,12.70
2023-05-01T20:01:33.827Z,12.70
2023-05-01T20:04:00.932Z,12.70
2023-05-01T20:06:28.020Z,12.80
2023-05-01T20:08:54.994Z,12.80
2023-05-01T20:11:21.858Z,12.80
2023-05-01T20:13:48.774Z,12.80
2023-05-01T20:16:15.810Z,12.80
2023-05-01T20:18:42.912Z,12.80
2023-05-01T20:21:09.812Z,12.80
2023-05-01T20:23:36.746Z,12.80
2023-05-01T20:26:04.343Z,12.80
2023-05-01T20:28:31.336Z,12.80
2023-05-01T20:30:58.456Z,12.70
2023-05-01T20:33:25.883Z,12.70
2023-05-01T20:35:53.049Z,12.70
2023-05-01T20:38:21.630Z,12.70
2023-05-01T20:40:48.656Z,12.60
2023-05-01T20:43:15.611Z,12.60
2023-05-01T20:45:42.805Z,12.60
2023-05-01T20:48:11.069Z,12.60
2023-05-01T20:50:38.127Z,12.60
2023-05-01T20:53:05.134Z,12.60
2023-05-01T20:55:32.064Z,12.60
2023-05-01T20:57:59.041Z,12.60
2023-05-01T21:00:26.180Z,12.50
2023-05-01T21:02:53.310Z,12.50
2023-05-01T21:05:20.423Z,12.50
2023-05-01T21:07:48.057Z,12.50
2023-05-01T21:10:16.657Z,12.50
2023-05-01T21:12:43.742Z,12.50
2023-05-01T21:15:11.696Z,12.50
2023-05-01T21:17:40.501Z,12.50
2023-05-01T21:20:25.117Z,12.40
2023-05-01T21:22:52.004Z,12.40
2023-05-01T21:25:27.982Z,12.30
2023-05-01T21:27:54.935Z,12.30
2023-05-01T21:30:34.694Z,12.30
2023-05-01T21:33:04.186Z,12.30
2023-05-01T21:35:31.664Z,12.30
2023-05-01T21:37:59.023Z,12.30
2023-05-01T21:40:27.015Z,12.30
2023-05-01T21:42:54.855Z,12.30
2023-05-01T21:45:22.252Z,12.30
2023-05-01T21:47:53.224Z,12.30
2023-05-01T21:50:21.483Z,12.30
2023-05-01T21:52:49.828Z,12.20
2023-05-01T21:55:21.805Z,12.10
2023-05-01T21:57:51.878Z,12.10
2023-05-01T22:00:21.300Z,12.10
2023-05-01T22:02:49.838Z,12.10
2023-05-01T22:05:19.803Z,12.10
2023-05-01T22:07:47.382Z,12.10
2023-05-01T22:10:18.897Z,12.00
2023-05-01T22:12:46.179Z,12.00
2023-05-01T22:15:13.921Z,12.00
2023-05-01T22:17:41.261Z,12.00
2023-05-01T22:20:09.161Z,12.00
2023-05-01T22:22:37.072Z,12.00
2023-05-01T22:25:06.508Z,12.00
2023-05-01T22:27:33.978Z,12.00
2023-05-01T22:30:01.710Z,12.00
2023-05-01T22:32:29.222Z,12.00
2023-05-01T22:34:56.322Z,12.00
2023-05-01T22:37:25.454Z,12.00
2023-05-01T22:39:53.583Z,12.00
2023-05-01T22:42:20.975Z,12.00
2023-05-01T22:44:48.265Z,12.00
2023-05-01T22:47:15.332Z,12.00
2023-05-01T22:49:50.210Z,12.00
2023-05-01T22:52:17.274Z,12.10
2023-05-01T22:54:44.266Z,12.00
2023-05-01T22:57:11.256Z,12.00
2023-05-01T22:59:40.427Z,12.10
2023-05-01T23:02:07.467Z,12.00
2023-05-01T23:04:34.659Z,12.00
2023-05-01T23:07:01.619Z,12.00
2023-05-01T23:09:32.133Z,12.00
2023-05-01T23:11:59.193Z,11.90
2023-05-01T23:14:26.203Z,12.00
2023-05-01T23:16:53.203Z,12.00
2023-05-01T23:19:24.789Z,12.10
2023-05-01T23:22:18.015Z,12.00
2023-05-01T23:24:49.342Z,12.00
2023-05-01T23:27:18.048Z,12.00
2023-05-01T23:30:05.669Z,11.90
2023-05-01T23:32:34.073Z,12.00
2023-05-01T23:35:14.117Z,12.00
2023-05-01T23:37:41.199Z,12.00
2023-05-01T23:40:08.996Z,12.00
2023-05-01T23:42:38.255Z,12.00
2023-05-01T23:45:06.677Z,11.90
2023-05-01T23:47:34.204Z,11.80
2023-05-01T23:50:01.897Z,11.80
2023-05-01T23:52:29.485Z,11.70
2023-05-01T23:54:56.554Z,11.70
2023-05-01T23:57:23.753Z,11.60
2023-05-01T23:59:50.704Z,11.50
